Time;durP1;ratioP1;P1;durP2;ratioP2;P2;SDS_P1;SDS_P2;PMS_P1;PMS_P2;Temp;Humidity;BMP_temperature;BMP_pressure;BME280_temperature;BME280_humidity;BME280_pressure;Samples;Min_cycle;Max_cycle;Signal;HPM_P1;HPM_P2
2023/05/22 00:02:09;;;;;;;;;;;16.60;99.90;;;;;;5032745;28;19905;-40
2023/05/22 00:04:34;;;;;;;;;;;16.50;99.90;;;;;;5032617;28;19916;-41
2023/05/22 00:07:00;;;;;;;;;;;16.60;99.90;;;;;;5032240;28;19912;-39
2023/05/22 00:09:26;;;;;;;;;;;16.60;99.90;;;;;;5032595;28;20010;-40
2023/05/22 00:11:51;;;;;;;;;;;16.50;99.90;;;;;;5032597;28;20473;-41
2023/05/22 00:14:17;;;;;;;;;;;16.50;99.90;;;;;;5032456;28;19905;-40
2023/05/22 00:16:42;;;;;;;;;;;16.50;99.90;;;;;;5032069;28;19919;-40
2023/05/22 00:19:12;;;;;;;;;;;16.50;99.90;;;;;;5032410;28;19912;-40
2023/05/22 00:21:38;;;;;;;;;;;16.50;99.90;;;;;;5032393;28;19987;-40
2023/05/22 00:24:04;;;;;;;;;;;16.50;99.90;;;;;;5032132;28;19913;-41
2023/05/22 00:26:29;;;;;;;;;;;16.50;99.90;;;;;;5031803;28;19912;-41
2023/05/22 00:28:55;;;;;;;;;;;16.50;99.90;;;;;;5032085;28;19937;-40
2023/05/22 00:31:20;;;;;;;;;;;16.50;99.90;;;;;;5032140;28;19951;-40
2023/05/22 00:33:46;;;;;;;;;;;16.50;99.90;;;;;;5032111;28;19911;-40
2023/05/22 00:36:12;;;;;;;;;;;16.50;99.90;;;;;;5031634;28;19905;-40
2023/05/22 00:38:37;;;;;;;;;;;16.50;99.90;;;;;;5031945;28;19909;-40
2023/05/22 00:41:04;;;;;;;;;;;16.50;99.90;;;;;;5032280;28;19916;-41
2023/05/22 00:43:30;;;;;;;;;;;16.50;99.90;;;;;;5031017;28;19924;-41
2023/05/22 00:45:55;;;;;;;;;;;16.50;99.90;;;;;;5031569;28;19905;-40
2023/05/22 00:48:21;;;;;;;;;;;16.50;99.90;;;;;;5031724;28;19912;-40
2023/05/22 00:50:50;;;;;;;;;;;16.40;99.90;;;;;;5031848;28;19951;-40
2023/05/22 00:53:18;;;;;;;;;;;16.50;99.90;;;;;;5032220;28;20369;-41
2023/05/22 00:55:44;;;;;;;;;;;16.40;99.90;;;;;;5031870;28;20289;-39
2023/05/22 00:58:11;;;;;;;;;;;16.40;99.90;;;;;;5031567;28;19912;-40
2023/05/22 01:00:38;;;;;;;;;;;16.40;99.90;;;;;;5031756;28;19905;-40
2023/05/22 01:03:06;;;;;;;;;;;16.40;99.90;;;;;;5031665;28;19909;-40
2023/05/22 01:05:33;;;;;;;;;;;16.40;99.90;;;;;;5031687;28;19905;-40
2023/05/22 01:07:58;;;;;;;;;;;16.40;99.90;;;;;;5031112;28;19909;-41
2023/05/22 01:10:24;;;;;;;;;;;16.40;99.90;;;;;;5031637;28;19905;-41
2023/05/22 01:13:08;;;;;;;;;;;16.40;99.90;;;;;;5031744;28;20239;-40
2023/05/22 01:15:39;;;;;;;;;;;16.40;99.90;;;;;;5031444;28;19958;-40
2023/05/22 01:18:23;;;;;;;;;;;16.40;99.90;;;;;;5031080;28;19913;-40
2023/05/22 01:20:51;;;;;;;;;;;16.40;99.90;;;;;;5031530;28;20365;-40
2023/05/22 01:23:26;;;;;;;;;;;16.40;99.90;;;;;;5031421;28;19919;-40
2023/05/22 01:25:54;;;;;;;;;;;16.40;99.90;;;;;;5031075;28;20389;-40
2023/05/22 01:28:20;;;;;;;;;;;16.40;99.90;;;;;;5031293;28;19905;-41
2023/05/22 01:31:05;;;;;;;;;;;16.40;99.90;;;;;;5031277;28;19912;-40
2023/05/22 01:33:34;;;;;;;;;;;16.40;99.90;;;;;;5031325;28;19963;-41
2023/05/22 01:36:00;;;;;;;;;;;16.40;99.90;;;;;;5031281;28;19909;-40
2023/05/22 01:38:26;;;;;;;;;;;16.40;99.90;;;;;;5031289;28;19905;-40
2023/05/22 01:40:52;;;;;;;;;;;16.40;99.90;;;;;;5031318;28;20328;-42
2023/05/22 01:43:18;;;;;;;;;;;16.40;99.90;;;;;;5031650;28;20007;-41
2023/05/22 01:45:44;;;;;;;;;;;16.40;99.90;;;;;;5030973;28;19995;-40
2023/05/22 01:48:11;;;;;;;;;;;16.40;99.90;;;;;;5031011;28;20366;-40
2023/05/22 01:50:37;;;;;;;;;;;16.40;99.90;;;;;;5031358;28;19912;-40
2023/05/22 01:53:10;;;;;;;;;;;16.30;99.90;;;;;;5031155;28;20003;-40
2023/05/22 01:55:46;;;;;;;;;;;16.30;99.90;;;;;;5034210;28;20341;-41
2023/05/22 01:58:30;;;;;;;;;;;16.30;99.90;;;;;;5034838;28;19905;-40
2023/05/22 02:00:58;;;;;;;;;;;16.30;99.90;;;;;;5035002;28;19912;-40
2023/05/22 02:03:27;;;;;;;;;;;16.30;99.90;;;;;;5035252;28;19913;-40
2023/05/22 02:05:54;;;;;;;;;;;16.30;99.90;;;;;;5034665;28;19917;-40
2023/05/22 02:08:20;;;;;;;;;;;16.30;99.90;;;;;;5034713;28;19913;-40
2023/05/22 02:10:47;;;;;;;;;;;16.30;99.90;;;;;;5017127;28;19988;-40
2023/05/22 02:13:12;;;;;;;;;;;16.30;99.90;;;;;;5034761;28;19962;-41
2023/05/22 02:15:38;;;;;;;;;;;16.30;99.90;;;;;;5034704;28;19909;-41
2023/05/22 02:18:08;;;;;;;;;;;16.30;99.90;;;;;;5034228;28;19905;-41
2023/05/22 02:20:34;;;;;;;;;;;16.30;99.90;;;;;;5034659;28;19951;-39
2023/05/22 02:22:59;;;;;;;;;;;16.30;99.90;;;;;;5034500;28;20378;-40
2023/05/22 02:25:25;;;;;;;;;;;16.30;99.90;;;;;;5034778;28;19928;-40
2023/05/22 02:27:51;;;;;;;;;;;16.30;99.90;;;;;;5034224;28;20004;-40
2023/05/22 02:30:16;;;;;;;;;;;16.30;99.90;;;;;;5034489;28;20305;-40
2023/05/22 02:32:42;;;;;;;;;;;16.30;99.90;;;;;;5034411;28;20362;-40
2023/05/22 02:35:08;;;;;;;;;;;16.20;99.90;;;;;;5034372;28;19905;-40
2023/05/22 02:37:34;;;;;;;;;;;16.30;99.90;;;;;;5033866;28;19959;-40
2023/05/22 02:40:00;;;;;;;;;;;16.30;99.90;;;;;;5034513;28;19980;-41
2023/05/22 02:42:25;;;;;;;;;;;16.30;99.90;;;;;;5034175;28;20001;-40
2023/05/22 02:44:51;;;;;;;;;;;16.30;99.90;;;;;;5034003;28;19923;-41
2023/05/22 02:47:17;;;;;;;;;;;16.30;99.90;;;;;;5033758;28;20005;-40
2023/05/22 02:49:43;;;;;;;;;;;16.30;99.90;;;;;;5034043;28;19916;-40
2023/05/22 02:52:08;;;;;;;;;;;16.30;99.90;;;;;;5034299;28;20062;-41
2023/05/22 02:54:34;;;;;;;;;;;16.30;99.90;;;;;;5033971;28;20381;-41
2023/05/22 02:56:59;;;;;;;;;;;16.30;99.90;;;;;;5033766;28;19905;-39
2023/05/22 02:59:25;;;;;;;;;;;16.20;99.90;;;;;;5033953;28;19908;-40
2023/05/22 03:01:53;;;;;;;;;;;16.20;99.90;;;;;;5034040;28;19936;-40
2023/05/22 03:04:18;;;;;;;;;;;16.20;99.90;;;;;;5033665;28;20328;-40
2023/05/22 03:06:45;;;;;;;;;;;16.30;99.90;;;;;;5032422;28;19905;-41
2023/05/22 03:09:11;;;;;;;;;;;16.30;99.90;;;;;;5033827;28;19905;-40
2023/05/22 03:11:36;;;;;;;;;;;16.30;99.90;;;;;;5033822;28;19931;-40
2023/05/22 03:14:02;;;;;;;;;;;16.20;99.90;;;;;;5033676;28;19909;-40
2023/05/22 03:16:28;;;;;;;;;;;16.20;99.90;;;;;;5033351;28;19933;-39
2023/05/22 03:19:06;;;;;;;;;;;16.30;99.90;;;;;;5033771;28;19911;-40
2023/05/22 03:21:31;;;;;;;;;;;16.20;99.90;;;;;;5033719;28;20424;-40
2023/05/22 03:23:57;;;;;;;;;;;16.20;99.90;;;;;;5033433;28;19917;-40
2023/05/22 03:26:22;;;;;;;;;;;16.30;99.90;;;;;;5033226;28;19913;-41
2023/05/22 03:28:49;;;;;;;;;;;16.30;99.90;;;;;;5015726;28;20382;-40
2023/05/22 03:31:14;;;;;;;;;;;16.20;99.90;;;;;;5033496;28;19909;-40
2023/05/22 03:33:40;;;;;;;;;;;16.30;99.90;;;;;;5033815;28;19905;-41
2023/05/22 03:36:06;;;;;;;;;;;16.30;99.90;;;;;;5032847;28;20316;-40
2023/05/22 03:38:31;;;;;;;;;;;16.30;99.90;;;;;;5033286;28;19905;-40
2023/05/22 03:40:56;;;;;;;;;;;16.30;99.90;;;;;;5033270;28;19945;-40
2023/05/22 03:43:22;;;;;;;;;;;16.30;99.90;;;;;;5033017;28;20007;-40
2023/05/22 03:45:47;;;;;;;;;;;16.20;99.90;;;;;;5032826;28;19905;-39
2023/05/22 03:48:13;;;;;;;;;;;16.20;99.90;;;;;;5032823;28;19956;-41
2023/05/22 03:50:38;;;;;;;;;;;16.20;99.90;;;;;;5033045;28;19909;-41
2023/05/22 03:53:04;;;;;;;;;;;16.20;99.90;;;;;;5033086;28;20293;-41
2023/05/22 03:55:30;;;;;;;;;;;16.20;99.90;;;;;;5032908;28;19909;-40
2023/05/22 03:57:56;;;;;;;;;;;16.20;99.90;;;;;;5032447;28;19905;-40
2023/05/22 04:00:21;;;;;;;;;;;16.10;99.90;;;;;;5032890;28;19905;-39
2023/05/22 04:02:49;;;;;;;;;;;16.10;99.90;;;;;;5032554;28;19987;-41
2023/05/22 04:05:15;;;;;;;;;;;16.10;99.90;;;;;;5032715;28;19909;-40
2023/05/22 04:07:40;;;;;;;;;;;16.10;99.90;;;;;;5032369;28;20426;-41
2023/05/22 04:10:06;;;;;;;;;;;16.10;99.90;;;;;;5032695;28;19959;-40
2023/05/22 04:12:32;;;;;;;;;;;16.10;99.90;;;;;;5032588;28;19966;-40
2023/05/22 04:14:57;;;;;;;;;;;16.10;99.90;;;;;;5032617;28;19909;-40
2023/05/22 04:17:23;;;;;;;;;;;16.10;99.90;;;;;;5031922;28;19913;-40
2023/05/22 04:19:48;;;;;;;;;;;16.10;99.90;;;;;;5032448;28;19940;-40
2023/05/22 04:22:15;;;;;;;;;;;16.10;99.90;;;;;;5032422;28;19959;-40
2023/05/22 04:24:40;;;;;;;;;;;16.10;99.90;;;;;;5032276;28;19909;-40
2023/05/22 04:27:06;;;;;;;;;;;16.10;99.90;;;;;;5031707;28;20385;-39
2023/05/22 04:29:35;;;;;;;;;;;16.10;99.90;;;;;;5032310;28;19952;-39
2023/05/22 04:32:00;;;;;;;;;;;16.10;99.90;;;;;;5032111;28;19952;-40
2023/05/22 04:34:26;;;;;;;;;;;16.10;99.90;;;;;;5032122;28;20323;-40
2023/05/22 04:36:51;;;;;;;;;;;16.10;99.90;;;;;;5031676;28;19978;-39
2023/05/22 04:39:17;;;;;;;;;;;16.10;99.90;;;;;;5032153;28;20389;-40
2023/05/22 04:41:43;;;;;;;;;;;16.10;99.90;;;;;;5032067;28;19909;-40
2023/05/22 04:44:08;;;;;;;;;;;16.10;99.90;;;;;;5031772;28;19920;-40
2023/05/22 04:46:34;;;;;;;;;;;16.10;99.90;;;;;;5031441;28;19905;-41
2023/05/22 04:49:00;;;;;;;;;;;16.10;99.90;;;;;;5031915;28;19909;-39
2023/05/22 04:51:33;;;;;;;;;;;16.10;99.90;;;;;;5031929;28;20366;-41
2023/05/22 04:53:59;;;;;;;;;;;16.00;99.90;;;;;;5031860;28;19912;-40
2023/05/22 04:56:25;;;;;;;;;;;15.90;99.90;;;;;;5031233;28;19913;-41
2023/05/22 04:58:52;;;;;;;;;;;15.90;99.90;;;;;;5031863;28;19905;-41
2023/05/22 05:01:18;;;;;;;;;;;16.00;99.90;;;;;;5031828;28;19913;-40
2023/05/22 05:03:44;;;;;;;;;;;15.90;99.90;;;;;;5031670;28;19919;-41
2023/05/22 05:06:11;;;;;;;;;;;15.90;99.90;;;;;;5031234;28;19905;-39
2023/05/22 05:08:36;;;;;;;;;;;15.90;99.90;;;;;;5031662;28;20416;-40
2023/05/22 05:11:02;;;;;;;;;;;16.00;99.90;;;;;;5031669;28;19909;-42
2023/05/22 05:13:28;;;;;;;;;;;16.00;99.90;;;;;;5031557;28;19905;-39
2023/05/22 05:15:53;;;;;;;;;;;16.00;99.90;;;;;;5031298;28;20027;-40
2023/05/22 05:18:19;;;;;;;;;;;16.00;99.90;;;;;;5031413;28;19954;-40
2023/05/22 05:20:45;;;;;;;;;;;16.00;99.90;;;;;;5031582;28;19916;-39
2023/05/22 05:23:10;;;;;;;;;;;16.00;99.90;;;;;;5031328;28;19909;-41
2023/05/22 05:25:37;;;;;;;;;;;16.10;99.90;;;;;;5031433;28;19905;-43
2023/05/22 05:28:11;;;;;;;;;;;16.10;99.90;;;;;;5030769;28;20014;-41
2023/05/22 05:30:37;;;;;;;;;;;16.10;99.90;;;;;;5037453;28;20310;-40
2023/05/22 05:33:03;;;;;;;;;;;16.10;99.90;;;;;;5038025;28;20033;-39
2023/05/22 05:35:29;;;;;;;;;;;16.10;99.90;;;;;;5037959;28;20366;-41
2023/05/22 05:37:55;;;;;;;;;;;16.10;99.90;;;;;;5037862;28;19909;-42
2023/05/22 05:40:20;;;;;;;;;;;16.10;99.90;;;;;;5037923;28;20428;-41
2023/05/22 05:42:46;;;;;;;;;;;16.20;99.90;;;;;;5037687;28;20346;-40
2023/05/22 05:45:12;;;;;;;;;;;16.20;99.90;;;;;;5037985;28;19913;-39
2023/05/22 05:47:37;;;;;;;;;;;16.20;99.90;;;;;;5037335;28;19913;-40
2023/05/22 05:50:03;;;;;;;;;;;16.30;99.90;;;;;;5037810;28;19909;-43
2023/05/22 05:52:31;;;;;;;;;;;16.30;99.90;;;;;;5037818;28;19905;-40
2023/05/22 05:54:57;;;;;;;;;;;16.30;99.90;;;;;;5038208;28;19909;-41
2023/05/22 05:57:22;;;;;;;;;;;16.30;99.90;;;;;;5037115;28;19959;-40
2023/05/22 05:59:48;;;;;;;;;;;16.40;99.90;;;;;;5037732;28;19992;-40
2023/05/22 06:02:13;;;;;;;;;;;16.40;99.90;;;;;;5037689;28;19905;-39
2023/05/22 06:04:39;;;;;;;;;;;16.40;99.90;;;;;;5037590;28;19909;-40
2023/05/22 06:07:05;;;;;;;;;;;16.40;99.90;;;;;;5037191;28;19912;-41
2023/05/22 06:09:30;;;;;;;;;;;16.40;99.90;;;;;;5037709;28;19905;-40
2023/05/22 06:11:56;;;;;;;;;;;16.40;99.90;;;;;;5037579;28;19905;-45
2023/05/22 06:14:21;;;;;;;;;;;16.40;99.90;;;;;;5037612;28;20007;-42
2023/05/22 06:16:47;;;;;;;;;;;16.40;99.90;;;;;;5037212;28;19909;-43
2023/05/22 06:19:13;;;;;;;;;;;16.50;99.90;;;;;;5037657;28;20369;-43
2023/05/22 06:21:38;;;;;;;;;;;16.50;99.90;;;;;;5037614;28;20343;-41
2023/05/22 06:24:04;;;;;;;;;;;16.50;99.90;;;;;;5037562;28;20015;-43
2023/05/22 06:26:30;;;;;;;;;;;16.50;99.90;;;;;;5036966;28;19991;-41
2023/05/22 06:28:56;;;;;;;;;;;16.40;99.90;;;;;;5037522;28;20251;-40
2023/05/22 06:31:21;;;;;;;;;;;16.40;99.90;;;;;;5019782;28;19928;-39
2023/05/22 06:33:47;;;;;;;;;;;16.40;99.90;;;;;;5037571;28;19943;-39
2023/05/22 06:36:12;;;;;;;;;;;16.40;99.90;;;;;;5037162;28;19913;-39
2023/05/22 06:38:38;;;;;;;;;;;16.50;99.90;;;;;;5037399;28;19909;-39
2023/05/22 06:41:04;;;;;;;;;;;16.40;99.90;;;;;;5034590;28;20382;-40
2023/05/22 06:43:29;;;;;;;;;;;16.40;99.90;;;;;;5034045;28;20252;-39
2023/05/22 06:45:55;;;;;;;;;;;16.40;99.90;;;;;;5034203;28;19912;-39
2023/05/22 06:48:20;;;;;;;;;;;16.50;99.90;;;;;;5034163;28;20362;-39
2023/05/22 06:50:46;;;;;;;;;;;16.50;99.90;;;;;;5034190;28;19996;-41
2023/05/22 06:53:11;;;;;;;;;;;16.50;99.90;;;;;;5033983;28;20442;-39
2023/05/22 06:55:37;;;;;;;;;;;16.50;99.90;;;;;;5034012;28;20255;-40
2023/05/22 06:58:02;;;;;;;;;;;16.50;99.90;;;;;;5033963;28;19967;-39
2023/05/22 07:00:28;;;;;;;;;;;16.50;99.90;;;;;;5034206;28;20280;-39
2023/05/22 07:02:53;;;;;;;;;;;16.50;99.90;;;;;;5033811;28;19909;-40
2023/05/22 07:05:19;;;;;;;;;;;16.50;99.90;;;;;;5034020;28;19948;-40
2023/05/22 07:07:45;;;;;;;;;;;16.60;99.90;;;;;;5033403;28;20008;-39
2023/05/22 07:10:10;;;;;;;;;;;16.60;99.90;;;;;;5015973;28;20371;-40
2023/05/22 07:12:36;;;;;;;;;;;16.50;99.90;;;;;;5033782;28;19912;-39
2023/05/22 07:15:01;;;;;;;;;;;16.60;99.90;;;;;;5033886;28;19901;-39
2023/05/22 07:17:27;;;;;;;;;;;16.60;99.90;;;;;;5033532;28;19951;-39
2023/05/22 07:19:52;;;;;;;;;;;16.60;99.90;;;;;;5033709;28;20604;-39
2023/05/22 07:22:18;;;;;;;;;;;16.50;99.90;;;;;;5033602;28;19905;-40
2023/05/22 07:24:45;;;;;;;;;;;16.60;99.90;;;;;;5033410;28;19909;-39
2023/05/22 07:27:11;;;;;;;;;;;16.50;99.90;;;;;;5033148;28;20285;-40
2023/05/22 07:29:36;;;;;;;;;;;16.60;99.90;;;;;;5033782;28;19955;-39
2023/05/22 07:32:02;;;;;;;;;;;16.60;99.90;;;;;;5033487;28;19905;-40
2023/05/22 07:34:31;;;;;;;;;;;16.60;99.90;;;;;;5033299;28;19905;-39
2023/05/22 07:36:57;;;;;;;;;;;16.60;99.90;;;;;;5033253;28;19916;-40
2023/05/22 07:39:23;;;;;;;;;;;16.60;99.90;;;;;;5033277;28;19908;-40
2023/05/22 07:41:52;;;;;;;;;;;16.60;99.90;;;;;;5033299;28;19905;-39
2023/05/22 07:44:18;;;;;;;;;;;16.60;99.90;;;;;;5033552;28;19975;-40
2023/05/22 07:46:43;;;;;;;;;;;16.60;99.90;;;;;;5032669;28;19909;-39
2023/05/22 07:49:09;;;;;;;;;;;16.60;99.90;;;;;;5033127;28;19905;-39
2023/05/22 07:51:35;;;;;;;;;;;16.60;99.90;;;;;;5032869;28;19905;-40
2023/05/22 07:54:01;;;;;;;;;;;16.70;99.90;;;;;;5032667;28;19996;-39
2023/05/22 07:56:26;;;;;;;;;;;16.60;99.90;;;;;;5032548;28;20262;-39
2023/05/22 07:58:52;;;;;;;;;;;16.60;99.90;;;;;;5032894;28;20293;-40
2023/05/22 08:01:17;;;;;;;;;;;16.70;99.90;;;;;;5032974;28;19908;-39
2023/05/22 08:03:43;;;;;;;;;;;16.70;99.90;;;;;;5032741;28;19921;-39
2023/05/22 08:06:08;;;;;;;;;;;16.70;99.90;;;;;;5014448;28;20089;-39
2023/05/22 08:08:34;;;;;;;;;;;16.70;99.90;;;;;;5032627;28;19905;-42
2023/05/22 08:10:59;;;;;;;;;;;16.70;99.90;;;;;;5032654;28;20424;-40
2023/05/22 08:13:25;;;;;;;;;;;16.60;99.90;;;;;;5032577;28;19958;-40
2023/05/22 08:15:51;;;;;;;;;;;16.60;99.90;;;;;;5032259;28;19948;-39
2023/05/22 08:18:16;;;;;;;;;;;16.60;99.90;;;;;;5032398;28;19908;-40
2023/05/22 08:20:42;;;;;;;;;;;16.70;99.90;;;;;;5032454;28;19905;-39
2023/05/22 08:23:07;;;;;;;;;;;16.70;99.90;;;;;;5032206;28;19909;-39
2023/05/22 08:25:33;;;;;;;;;;;16.70;99.90;;;;;;5032533;28;19908;-41
2023/05/22 08:27:58;;;;;;;;;;;16.70;99.90;;;;;;5031851;28;19932;-39
2023/05/22 08:30:24;;;;;;;;;;;16.70;99.90;;;;;;5032674;28;19916;-41
2023/05/22 08:32:49;;;;;;;;;;;16.70;99.90;;;;;;5032215;28;19913;-40
2023/05/22 08:35:15;;;;;;;;;;;16.70;99.90;;;;;;5032557;28;20346;-39
2023/05/22 08:37:40;;;;;;;;;;;16.70;99.90;;;;;;5031593;28;19905;-39
2023/05/22 08:40:10;;;;;;;;;;;16.70;99.90;;;;;;5032570;28;19905;-40
2023/05/22 08:42:35;;;;;;;;;;;16.70;99.90;;;;;;5031941;28;19908;-40
2023/05/22 08:45:01;;;;;;;;;;;16.70;99.90;;;;;;5031981;28;19993;-40
2023/05/22 08:47:27;;;;;;;;;;;16.70;99.90;;;;;;5031525;28;19905;-38
2023/05/22 08:49:53;;;;;;;;;;;16.70;99.90;;;;;;5031916;28;19990;-39
2023/05/22 08:52:25;;;;;;;;;;;16.70;99.90;;;;;;5031876;28;19911;-39
2023/05/22 08:54:54;;;;;;;;;;;16.70;99.90;;;;;;5031839;28;19996;-42
2023/05/22 08:57:20;;;;;;;;;;;16.70;99.90;;;;;;5031361;28;19905;-40
2023/05/22 08:59:46;;;;;;;;;;;16.70;99.90;;;;;;5031880;28;19916;-39
2023/05/22 09:02:12;;;;;;;;;;;16.70;99.90;;;;;;5031779;28;19909;-40
2023/05/22 09:04:41;;;;;;;;;;;16.70;99.90;;;;;;5030930;28;19908;-39
2023/05/22 09:07:07;;;;;;;;;;;16.70;99.90;;;;;;5031130;28;19909;-40
2023/05/22 09:09:39;;;;;;;;;;;16.70;99.90;;;;;;5031697;28;19940;-42
2023/05/22 09:12:09;;;;;;;;;;;16.70;99.90;;;;;;5031679;28;19909;-40
2023/05/22 09:14:38;;;;;;;;;;;16.70;99.90;;;;;;5031614;28;19952;-39
2023/05/22 09:17:03;;;;;;;;;;;16.80;99.90;;;;;;5031085;28;19913;-39
2023/05/22 09:19:29;;;;;;;;;;;16.70;99.90;;;;;;5031930;28;19912;-39
2023/05/22 09:22:01;;;;;;;;;;;16.80;99.90;;;;;;5031548;28;19999;-39
2023/05/22 09:24:26;;;;;;;;;;;16.80;99.90;;;;;;5031359;28;20431;-39
2023/05/22 09:26:52;;;;;;;;;;;16.80;99.90;;;;;;5031002;28;19916;-39
2023/05/22 09:29:17;;;;;;;;;;;16.80;99.90;;;;;;5031540;28;19909;-39
2023/05/22 09:31:43;;;;;;;;;;;16.80;99.90;;;;;;5031893;28;19913;-40
2023/05/22 09:34:09;;;;;;;;;;;16.80;99.90;;;;;;5031160;28;19911;-39
2023/05/22 09:36:34;;;;;;;;;;;16.80;99.90;;;;;;5030879;28;19912;-40
2023/05/22 09:39:00;;;;;;;;;;;16.80;99.90;;;;;;5031393;28;19905;-40
2023/05/22 09:41:32;;;;;;;;;;;16.80;99.90;;;;;;5031343;28;19909;-41
2023/05/22 09:43:57;;;;;;;;;;;16.80;99.90;;;;;;5031114;28;19913;-40
2023/05/22 09:46:23;;;;;;;;;;;16.80;99.90;;;;;;5030772;28;19920;-39
2023/05/22 09:48:52;;;;;;;;;;;16.80;99.90;;;;;;5031172;28;19967;-39
2023/05/22 09:51:20;;;;;;;;;;;16.90;99.90;;;;;;5031214;28;19988;-39
2023/05/22 09:53:46;;;;;;;;;;;16.80;99.90;;;;;;5031126;28;20001;-39
2023/05/22 09:56:12;;;;;;;;;;;16.90;99.90;;;;;;5030678;28;19955;-39
2023/05/22 09:58:40;;;;;;;;;;;16.90;99.90;;;;;;5031236;28;19945;-39
2023/05/22 10:01:09;;;;;;;;;;;16.90;99.90;;;;;;5031577;28;19959;-39
2023/05/22 10:03:36;;;;;;;;;;;16.90;99.90;;;;;;5031131;28;20004;-40
2023/05/22 10:06:02;;;;;;;;;;;16.90;99.90;;;;;;5030815;28;19962;-39
2023/05/22 10:08:30;;;;;;;;;;;16.90;99.90;;;;;;5031029;28;19912;-39
2023/05/22 10:10:57;;;;;;;;;;;16.80;99.90;;;;;;5031097;28;19932;-40
2023/05/22 10:13:23;;;;;;;;;;;16.90;99.90;;;;;;5031076;28;19911;-39
2023/05/22 10:15:49;;;;;;;;;;;16.90;99.90;;;;;;5032307;28;19905;-39
2023/05/22 10:18:15;;;;;;;;;;;16.90;99.90;;;;;;5034607;28;19948;-40
2023/05/22 10:20:41;;;;;;;;;;;16.90;99.90;;;;;;5034714;28;19913;-39
2023/05/22 10:23:06;;;;;;;;;;;16.90;99.90;;;;;;5034552;28;19998;-41
2023/05/22 10:25:33;;;;;;;;;;;16.90;99.90;;;;;;5034645;28;19908;-39
2023/05/22 10:27:59;;;;;;;;;;;16.90;99.90;;;;;;5033840;28;19912;-40
2023/05/22 10:30:27;;;;;;;;;;;16.90;99.90;;;;;;5034486;28;20654;-38
2023/05/22 10:32:59;;;;;;;;;;;16.90;99.90;;;;;;5034533;28;19950;-38
2023/05/22 10:35:36;;;;;;;;;;;16.90;99.90;;;;;;5034518;28;19905;-39
2023/05/22 10:38:05;;;;;;;;;;;16.90;99.90;;;;;;5034023;28;19909;-39
2023/05/22 10:40:31;;;;;;;;;;;17.00;99.90;;;;;;5034411;28;20397;-39
2023/05/22 10:43:01;;;;;;;;;;;17.00;99.90;;;;;;5034029;28;19928;-39
2023/05/22 10:45:27;;;;;;;;;;;17.00;99.90;;;;;;5034321;28;19952;-40
2023/05/22 10:48:03;;;;;;;;;;;17.00;99.90;;;;;;5034079;28;20248;-41
2023/05/22 10:50:28;;;;;;;;;;;17.00;99.90;;;;;;5034161;28;19913;-39
2023/05/22 10:53:16;;;;;;;;;;;17.00;99.90;;;;;;5034610;28;19905;-40
2023/05/22 10:55:52;;;;;;;;;;;17.00;99.90;;;;;;5033928;28;19909;-39
2023/05/22 10:58:24;;;;;;;;;;;17.00;99.90;;;;;;5033926;28;19913;-40
2023/05/22 11:01:06;;;;;;;;;;;17.00;99.90;;;;;;5034085;28;20373;-39
2023/05/22 11:03:49;;;;;;;;;;;17.00;99.90;;;;;;5033733;28;20011;-39
2023/05/22 11:06:34;;;;;;;;;;;17.10;99.90;;;;;;5033450;28;19927;-39
2023/05/22 11:09:15;;;;;;;;;;;17.10;99.90;;;;;;5033911;28;19905;-39
2023/05/22 11:11:41;;;;;;;;;;;17.10;99.90;;;;;;5033906;28;19905;-39
2023/05/22 11:14:06;;;;;;;;;;;17.10;99.90;;;;;;5033610;28;19974;-40
2023/05/22 11:16:32;;;;;;;;;;;17.10;99.90;;;;;;5033314;28;19920;-40
2023/05/22 11:19:07;;;;;;;;;;;17.10;99.90;;;;;;5033821;28;19905;-39
2023/05/22 11:21:43;;;;;;;;;;;17.10;99.90;;;;;;5033973;28;19912;-39
2023/05/22 11:24:09;;;;;;;;;;;17.20;99.90;;;;;;5033542;28;20322;-40
2023/05/22 11:26:35;;;;;;;;;;;17.20;99.90;;;;;;5032394;28;20019;-40
2023/05/22 11:29:00;;;;;;;;;;;17.20;99.90;;;;;;5033264;28;19912;-39
2023/05/22 11:31:28;;;;;;;;;;;17.30;99.90;;;;;;5033496;28;19909;-42
2023/05/22 11:33:54;;;;;;;;;;;17.30;99.90;;;;;;5033427;28;19905;-40
2023/05/22 11:36:19;;;;;;;;;;;17.40;99.90;;;;;;5032990;28;19916;-40
2023/05/22 11:38:45;;;;;;;;;;;17.40;99.90;;;;;;5033371;28;19909;-39
2023/05/22 11:41:11;;;;;;;;;;;17.40;99.90;;;;;;5033173;28;19996;-42
2023/05/22 11:43:37;;;;;;;;;;;17.40;99.90;;;;;;5033145;28;20346;-39
2023/05/22 11:46:06;;;;;;;;;;;17.40;99.90;;;;;;5032688;28;20001;-40
2023/05/22 11:48:32;;;;;;;;;;;17.50;99.90;;;;;;5033139;28;19912;-40
2023/05/22 11:50:58;;;;;;;;;;;17.40;99.90;;;;;;5033095;28;19984;-40
2023/05/22 11:53:23;;;;;;;;;;;17.50;99.90;;;;;;5032957;28;20363;-39
2023/05/22 11:55:49;;;;;;;;;;;17.50;99.90;;;;;;5032625;28;20108;-39
2023/05/22 11:58:16;;;;;;;;;;;17.50;99.90;;;;;;5032789;28;20318;-39
2023/05/22 12:00:42;;;;;;;;;;;17.50;99.90;;;;;;5033054;28;19909;-40
2023/05/22 12:03:07;;;;;;;;;;;17.50;99.90;;;;;;5032753;28;19915;-40
2023/05/22 12:05:33;;;;;;;;;;;17.50;99.90;;;;;;5033061;28;19956;-38
2023/05/22 12:07:58;;;;;;;;;;;17.50;99.90;;;;;;5032377;28;19967;-40
2023/05/22 12:10:24;;;;;;;;;;;17.50;99.90;;;;;;5032690;28;19912;-38
2023/05/22 12:12:50;;;;;;;;;;;17.50;99.90;;;;;;5032573;28;19912;-39
2023/05/22 12:15:19;;;;;;;;;;;17.50;99.90;;;;;;5032570;28;19905;-40
2023/05/22 12:17:45;;;;;;;;;;;17.50;99.90;;;;;;5032090;28;19905;-40
2023/05/22 12:20:11;;;;;;;;;;;17.50;99.90;;;;;;5032496;28;19908;-40
2023/05/22 12:22:41;;;;;;;;;;;17.50;99.90;;;;;;5032367;28;19909;-39
2023/05/22 12:25:11;;;;;;;;;;;17.50;99.90;;;;;;5032327;28;19916;-39
2023/05/22 12:27:36;;;;;;;;;;;17.50;99.90;;;;;;5032027;28;20150;-40
2023/05/22 12:30:12;;;;;;;;;;;17.50;99.90;;;;;;5032720;28;19909;-38
2023/05/22 12:32:38;;;;;;;;;;;17.50;99.90;;;;;;5032278;28;19916;-38
2023/05/22 12:35:04;;;;;;;;;;;17.50;99.90;;;;;;5032305;28;19916;-39
2023/05/22 12:37:32;;;;;;;;;;;17.50;99.90;;;;;;5031556;28;19917;-39
2023/05/22 12:39:58;;;;;;;;;;;17.50;99.90;;;;;;5031211;28;19905;-41
2023/05/22 12:42:24;;;;;;;;;;;17.50;99.90;;;;;;5032104;28;19908;-40
2023/05/22 12:44:54;;;;;;;;;;;17.60;99.90;;;;;;5031817;28;20393;-40
2023/05/22 12:47:20;;;;;;;;;;;17.60;99.90;;;;;;5031578;28;19944;-40
2023/05/22 12:49:45;;;;;;;;;;;17.60;99.90;;;;;;5031941;28;19932;-39
2023/05/22 12:52:11;;;;;;;;;;;17.60;99.90;;;;;;5032031;28;20370;-40
2023/05/22 12:54:37;;;;;;;;;;;17.60;99.90;;;;;;5031897;28;19905;-39
2023/05/22 12:57:02;;;;;;;;;;;17.60;99.90;;;;;;5031369;28;19905;-39
2023/05/22 12:59:29;;;;;;;;;;;17.60;99.90;;;;;;5031835;28;19905;-41
2023/05/22 13:02:00;;;;;;;;;;;17.60;99.90;;;;;;5031966;28;19927;-39
2023/05/22 13:04:26;;;;;;;;;;;17.50;99.90;;;;;;5031646;28;19913;-40
2023/05/22 13:06:52;;;;;;;;;;;17.60;99.90;;;;;;5031228;28;19958;-39
2023/05/22 13:09:18;;;;;;;;;;;17.60;99.90;;;;;;5031713;28;20373;-40
2023/05/22 13:11:44;;;;;;;;;;;17.60;99.90;;;;;;5031688;28;19908;-40
2023/05/22 13:14:09;;;;;;;;;;;17.60;99.90;;;;;;5031548;28;19909;-40
2023/05/22 13:16:35;;;;;;;;;;;17.60;99.90;;;;;;5031094;28;19969;-40
2023/05/22 13:19:01;;;;;;;;;;;17.60;99.90;;;;;;5031514;28;19913;-40
2023/05/22 13:21:26;;;;;;;;;;;17.60;99.90;;;;;;5031579;28;20365;-40
2023/05/22 13:23:52;;;;;;;;;;;17.60;99.90;;;;;;5031619;28;19916;-40
2023/05/22 13:26:17;;;;;;;;;;;17.60;99.90;;;;;;5031004;28;19905;-40
2023/05/22 13:28:42;;;;;;;;;;;17.60;99.90;;;;;;5031432;28;19909;-40
2023/05/22 13:31:08;;;;;;;;;;;17.60;99.90;;;;;;5031454;28;20010;-43
2023/05/22 13:33:34;;;;;;;;;;;17.60;99.90;;;;;;5031266;28;19987;-40
2023/05/22 13:35:59;;;;;;;;;;;17.60;99.90;;;;;;5030984;28;19915;-39
2023/05/22 13:38:25;;;;;;;;;;;17.60;99.90;;;;;;5031139;28;20009;-39
2023/05/22 13:40:50;;;;;;;;;;;17.70;99.90;;;;;;5030946;28;20015;-40
2023/05/22 13:43:16;;;;;;;;;;;18.20;99.90;;;;;;5031360;28;20294;-42
2023/05/22 13:45:41;;;;;;;;;;;18.50;99.90;;;;;;5030963;28;19912;-40
2023/05/22 13:48:07;;;;;;;;;;;19.00;99.90;;;;;;5030848;28;19909;-41
2023/05/22 13:50:32;;;;;;;;;;;19.30;99.90;;;;;;5032656;28;19909;-40
2023/05/22 13:52:58;;;;;;;;;;;19.60;99.90;;;;;;5035236;28;20266;-41
2023/05/22 13:55:23;;;;;;;;;;;19.70;99.90;;;;;;5035277;28;19919;-40
2023/05/22 13:57:49;;;;;;;;;;;20.00;99.90;;;;;;5034985;28;19967;-41
2023/05/22 14:00:15;;;;;;;;;;;20.20;99.90;;;;;;5035232;28;19909;-41
2023/05/22 14:02:40;;;;;;;;;;;20.40;99.90;;;;;;5035143;28;20336;-40
2023/05/22 14:05:06;;;;;;;;;;;20.60;99.90;;;;;;5035072;28;20377;-43
2023/05/22 14:07:31;;;;;;;;;;;20.80;99.90;;;;;;5034601;28;19905;-42
2023/05/22 14:09:57;;;;;;;;;;;20.90;99.90;;;;;;5034998;28;19951;-40
2023/05/22 14:12:22;;;;;;;;;;;21.00;99.90;;;;;;5034937;28;19912;-40
2023/05/22 14:14:48;;;;;;;;;;;21.10;99.90;;;;;;5034843;28;19954;-40